Terminal Aerodrome Forecast
Issued by NWS

Home | Current Version | Previous Version | Text Only | Print | Product List | Glossary On
Versions: 1 2 3 4 5 6 7 8 9 10 11 12 13 14 15 16 17 18 19 20
000
FTUS41 KBTV 251404 AAA
TAFPBG
TAF AMD
KPBG 251404Z 2514/2612 VRB03KT P6SM BKN070 WS020/20040KT
     FM251600 16012KT P6SM BKN070 WS020/20040KT
     FM251800 17015G25KT P6SM VCSH BKN030
      TEMPO 2521/2601 2SM +SHRA BR OVC020
     FM260100 25006KT P6SM VCSH OVC030
      TEMPO 2601/2603 3SM -SHRA BR OVC020=

USA.gov is the U.S. government's official web portal to all federal, state and local government web resources and services.